Time;durP1;ratioP1;P1;durP2;ratioP2;P2;SDS_P1;SDS_P2;PMS_P1;PMS_P2;Temp;Humidity;BMP_temperature;BMP_pressure;BME280_temperature;BME280_humidity;BME280_pressure;Samples;Min_cycle;Max_cycle;Signal;HPM_P1;HPM_P2
2021/06/10 00:00:31;;;;;;;;;;;20.10;99.90;;;;;;4998912;28;19977;-79
2021/06/10 00:02:59;;;;;;;;;;;20.10;99.90;;;;;;4997883;28;19969;-79
2021/06/10 00:05:25;;;;;;;;;;;20.00;99.90;;;;;;4997241;28;19972;-78
2021/06/10 00:07:53;;;;;;;;;;;20.00;99.90;;;;;;4995980;28;19922;-76
2021/06/10 00:10:20;;;;;;;;;;;19.90;99.90;;;;;;4997479;28;19922;-79
2021/06/10 00:12:46;;;;;;;;;;;19.90;99.90;;;;;;4990596;28;19958;-79
2021/06/10 00:15:14;;;;;;;;;;;19.90;99.90;;;;;;4996449;28;20000;-79
2021/06/10 00:17:40;;;;;;;;;;;19.90;99.90;;;;;;4998237;28;19953;-80
2021/06/10 00:20:09;;;;;;;;;;;19.90;99.90;;;;;;4998903;28;20020;-80
2021/06/10 00:22:36;;;;;;;;;;;19.80;99.90;;;;;;4999804;28;20016;-79
2021/06/10 00:25:02;;;;;;;;;;;19.80;99.90;;;;;;4999471;28;20080;-79
2021/06/10 00:27:28;;;;;;;;;;;19.80;99.90;;;;;;4998663;28;20000;-80
2021/06/10 00:29:54;;;;;;;;;;;19.70;99.90;;;;;;4998713;28;19961;-79
2021/06/10 00:32:21;;;;;;;;;;;19.70;99.90;;;;;;4997586;28;20012;-79
2021/06/10 00:34:47;;;;;;;;;;;19.70;99.90;;;;;;4996608;28;20436;-78
2021/06/10 00:37:15;;;;;;;;;;;19.70;99.90;;;;;;4997731;28;19961;-79
2021/06/10 00:39:41;;;;;;;;;;;19.60;99.90;;;;;;4996913;28;20378;-79
2021/06/10 00:42:07;;;;;;;;;;;19.50;99.90;;;;;;4998653;28;19969;-79
2021/06/10 00:44:34;;;;;;;;;;;19.50;99.90;;;;;;4996660;28;20422;-79
2021/06/10 00:47:01;;;;;;;;;;;19.50;99.90;;;;;;4996678;28;20439;-79
2021/06/10 00:49:27;;;;;;;;;;;19.50;99.90;;;;;;4996736;28;20020;-79
2021/06/10 00:51:54;;;;;;;;;;;19.50;99.90;;;;;;4999739;28;19929;-79
2021/06/10 00:54:22;;;;;;;;;;;19.50;99.90;;;;;;4998204;28;19976;-79
2021/06/10 00:56:49;;;;;;;;;;;19.40;99.90;;;;;;4999490;28;19979;-80
2021/06/10 00:59:15;;;;;;;;;;;19.30;99.90;;;;;;5001181;28;19922;-81
2021/06/10 01:01:41;;;;;;;;;;;19.20;99.90;;;;;;5000193;28;19964;-81
2021/06/10 01:04:07;;;;;;;;;;;19.10;99.90;;;;;;4999930;28;19998;-80
2021/06/10 01:06:37;;;;;;;;;;;19.10;99.90;;;;;;4998818;28;20008;-80
2021/06/10 01:09:05;;;;;;;;;;;19.00;99.90;;;;;;4998360;28;19922;-79
2021/06/10 01:11:46;;;;;;;;;;;19.00;99.90;;;;;;4997907;28;20022;-79
2021/06/10 01:14:16;;;;;;;;;;;19.00;99.90;;;;;;4997564;28;20007;-79
2021/06/10 01:16:44;;;;;;;;;;;19.00;99.90;;;;;;4998005;28;20349;-80
2021/06/10 01:19:11;;;;;;;;;;;19.00;99.90;;;;;;4997541;28;20013;-80
2021/06/10 01:21:38;;;;;;;;;;;19.00;99.90;;;;;;4998526;28;19968;-80
2021/06/10 01:24:23;;;;;;;;;;;18.90;99.90;;;;;;4999920;28;19925;-79
2021/06/10 01:26:52;;;;;;;;;;;18.90;99.90;;;;;;4997844;28;20009;-79
2021/06/10 01:29:22;;;;;;;;;;;18.90;99.90;;;;;;4996610;28;20016;-79
2021/06/10 01:31:48;;;;;;;;;;;18.90;99.90;;;;;;4997720;28;19984;-79
2021/06/10 01:34:16;;;;;;;;;;;18.90;99.90;;;;;;4997452;28;20009;-79
2021/06/10 01:36:43;;;;;;;;;;;18.90;99.90;;;;;;4998064;28;20028;-79
2021/06/10 01:39:11;;;;;;;;;;;18.90;99.90;;;;;;4997115;28;19921;-80
2021/06/10 01:41:37;;;;;;;;;;;19.00;99.90;;;;;;4997220;28;20147;-79
2021/06/10 01:44:04;;;;;;;;;;;18.90;99.90;;;;;;4995353;28;20037;-79
2021/06/10 01:46:32;;;;;;;;;;;18.80;99.90;;;;;;4995852;28;20012;-80
2021/06/10 01:48:59;;;;;;;;;;;18.70;99.90;;;;;;4996861;28;20006;-79
2021/06/10 01:51:27;;;;;;;;;;;18.60;99.90;;;;;;4998444;28;19965;-79
2021/06/10 01:53:54;;;;;;;;;;;18.50;99.90;;;;;;4998441;28;20017;-79
2021/06/10 01:56:21;;;;;;;;;;;18.50;99.90;;;;;;4998193;28;20394;-78
2021/06/10 01:58:47;;;;;;;;;;;18.40;99.90;;;;;;4995909;28;20001;-78
2021/06/10 02:01:15;;;;;;;;;;;18.40;99.90;;;;;;4995801;28;20394;-77
2021/06/10 02:03:43;;;;;;;;;;;18.40;99.90;;;;;;4994015;28;19921;-78
2021/06/10 02:06:09;;;;;;;;;;;18.40;99.90;;;;;;4996203;28;20020;-78
2021/06/10 02:08:36;;;;;;;;;;;18.30;99.90;;;;;;4996380;28;20012;-79
2021/06/10 02:11:04;;;;;;;;;;;18.20;99.90;;;;;;4995764;28;19922;-79
2021/06/10 02:13:31;;;;;;;;;;;18.30;99.90;;;;;;4994672;28;20005;-77
2021/06/10 02:15:58;;;;;;;;;;;18.30;99.90;;;;;;4994099;28;20021;-78
2021/06/10 02:18:24;;;;;;;;;;;18.40;99.90;;;;;;4993749;28;20008;-78
2021/06/10 02:20:51;;;;;;;;;;;18.40;99.90;;;;;;4994188;28;20012;-77
2021/06/10 02:23:18;;;;;;;;;;;18.40;99.90;;;;;;4994521;28;19969;-78
2021/06/10 02:25:44;;;;;;;;;;;18.40;99.90;;;;;;4993572;28;19928;-78
2021/06/10 02:28:10;;;;;;;;;;;18.40;99.90;;;;;;4993710;28;19967;-78
2021/06/10 02:30:36;;;;;;;;;;;18.50;99.90;;;;;;4992861;28;19944;-78
2021/06/10 02:33:02;;;;;;;;;;;18.50;99.90;;;;;;4992554;28;20012;-77
2021/06/10 02:35:29;;;;;;;;;;;18.50;99.90;;;;;;4992884;28;19972;-77
2021/06/10 02:37:58;;;;;;;;;;;18.60;99.90;;;;;;4992624;28;20033;-77
2021/06/10 02:40:26;;;;;;;;;;;18.50;99.90;;;;;;4992873;28;19928;-77
2021/06/10 02:42:54;;;;;;;;;;;18.50;99.90;;;;;;4992423;28;20421;-77
2021/06/10 02:45:20;;;;;;;;;;;18.50;99.90;;;;;;4992351;28;20047;-77
2021/06/10 02:47:47;;;;;;;;;;;18.40;99.90;;;;;;4992540;28;20009;-77
2021/06/10 02:50:25;;;;;;;;;;;18.40;99.90;;;;;;5002086;23;19925;-77
2021/06/10 02:52:52;;;;;;;;;;;18.50;99.90;;;;;;4992091;28;19948;-76
2021/06/10 02:55:21;;;;;;;;;;;18.50;99.90;;;;;;4992516;28;19973;-77
2021/06/10 02:57:52;;;;;;;;;;;18.50;99.90;;;;;;4991920;28;19929;-77
2021/06/10 03:00:22;;;;;;;;;;;18.50;99.90;;;;;;4981005;28;20406;-77
2021/06/10 03:02:49;;;;;;;;;;;18.40;99.90;;;;;;4976628;28;20358;-77
2021/06/10 03:05:16;;;;;;;;;;;18.40;99.90;;;;;;4977579;28;19925;-77
2021/06/10 03:07:43;;;;;;;;;;;18.40;99.90;;;;;;4978470;28;19926;-78
2021/06/10 03:10:10;;;;;;;;;;;18.20;99.90;;;;;;4977458;28;19983;-77
2021/06/10 03:12:38;;;;;;;;;;;18.20;99.90;;;;;;4977484;28;19922;-78
2021/06/10 03:15:05;;;;;;;;;;;18.20;99.90;;;;;;4977254;28;20368;-78
2021/06/10 03:17:31;;;;;;;;;;;18.20;99.90;;;;;;4977258;28;20012;-76
2021/06/10 03:19:57;;;;;;;;;;;18.20;99.90;;;;;;4976602;28;19928;-76
2021/06/10 03:22:24;;;;;;;;;;;18.20;99.90;;;;;;4976875;28;20021;-76
2021/06/10 03:24:50;;;;;;;;;;;18.20;99.90;;;;;;4978544;28;19969;-78
2021/06/10 03:27:17;;;;;;;;;;;18.20;99.90;;;;;;4980058;28;20025;-78
2021/06/10 03:29:44;;;;;;;;;;;18.20;99.90;;;;;;4980138;28;19922;-79
2021/06/10 03:32:11;;;;;;;;;;;18.20;99.90;;;;;;4980043;28;19933;-79
2021/06/10 03:34:37;;;;;;;;;;;18.20;99.90;;;;;;4980280;28;19961;-79
2021/06/10 03:37:04;;;;;;;;;;;18.20;99.90;;;;;;4982151;28;19973;-79
2021/06/10 03:39:30;;;;;;;;;;;18.30;99.90;;;;;;4981602;28;19977;-78
2021/06/10 03:41:58;;;;;;;;;;;18.30;99.90;;;;;;4980384;28;20004;-78
2021/06/10 03:44:25;;;;;;;;;;;18.40;99.90;;;;;;4977455;28;19979;-77
2021/06/10 03:46:52;;;;;;;;;;;18.40;99.90;;;;;;4976770;28;19926;-77
2021/06/10 03:49:19;;;;;;;;;;;18.40;99.90;;;;;;4977046;28;19926;-77
2021/06/10 03:51:48;;;;;;;;;;;18.40;99.90;;;;;;4977528;28;19973;-78
2021/06/10 03:54:14;;;;;;;;;;;18.40;99.90;;;;;;4990348;28;20433;-78
2021/06/10 03:56:40;;;;;;;;;;;18.40;99.90;;;;;;4994910;28;19949;-77
2021/06/10 03:59:07;;;;;;;;;;;18.40;99.90;;;;;;4991228;28;19969;-77
2021/06/10 04:01:33;;;;;;;;;;;18.40;99.90;;;;;;4977074;28;19922;-77
2021/06/10 04:04:00;;;;;;;;;;;18.50;99.90;;;;;;4975343;28;20016;-77
2021/06/10 04:06:30;;;;;;;;;;;18.50;99.90;;;;;;4975609;28;20310;-78
2021/06/10 04:08:56;;;;;;;;;;;18.70;99.90;;;;;;4978580;28;19977;-78
2021/06/10 04:11:23;;;;;;;;;;;18.90;99.90;;;;;;4977344;28;19929;-78
2021/06/10 04:13:49;;;;;;;;;;;19.20;99.90;;;;;;4976044;28;19987;-77
2021/06/10 04:16:15;;;;;;;;;;;19.50;99.90;;;;;;4975710;28;20413;-77
2021/06/10 04:18:41;;;;;;;;;;;19.90;99.90;;;;;;4975565;28;19961;-77
2021/06/10 04:21:09;;;;;;;;;;;20.20;99.90;;;;;;4975548;28;20149;-77
2021/06/10 04:23:36;;;;;;;;;;;20.40;99.90;;;;;;4975345;28;19968;-77
2021/06/10 04:26:02;;;;;;;;;;;20.70;99.90;;;;;;4975399;28;19976;-77
2021/06/10 04:28:28;;;;;;;;;;;20.90;99.90;;;;;;4976076;28;19922;-77
2021/06/10 04:30:54;;;;;;;;;;;21.30;99.90;;;;;;4975453;28;20091;-77
2021/06/10 04:33:20;;;;;;;;;;;21.70;99.90;;;;;;4975030;28;20018;-77
2021/06/10 04:35:46;;;;;;;;;;;22.00;99.90;;;;;;4975408;28;20061;-77
2021/06/10 04:38:15;;;;;;;;;;;22.10;99.90;;;;;;4975015;28;20027;-76
2021/06/10 04:40:41;;;;;;;;;;;22.00;99.90;;;;;;4975002;28;20004;-77
2021/06/10 04:43:07;;;;;;;;;;;22.00;99.90;;;;;;4975140;28;19969;-76
2021/06/10 04:45:34;;;;;;;;;;;21.90;99.90;;;;;;4975459;28;19921;-76
2021/06/10 04:48:00;;;;;;;;;;;21.80;99.90;;;;;;4977000;28;19941;-78
2021/06/10 04:50:28;;;;;;;;;;;21.90;99.90;;;;;;4977030;28;20151;-78
2021/06/10 04:52:54;;;;;;;;;;;21.90;99.90;;;;;;4976725;28;19929;-77
2021/06/10 04:55:22;;;;;;;;;;;21.70;99.90;;;;;;4981037;28;19921;-79
2021/06/10 04:57:48;;;;;;;;;;;21.60;99.90;;;;;;4977516;28;20020;-77
2021/06/10 05:00:15;;;;;;;;;;;21.90;99.90;;;;;;4975251;28;20366;-77
2021/06/10 05:02:41;;;;;;;;;;;22.00;99.90;;;;;;4975644;28;20307;-77
2021/06/10 05:05:08;;;;;;;;;;;21.90;99.90;;;;;;4978011;28;19988;-80
2021/06/10 05:07:34;;;;;;;;;;;22.10;99.90;;;;;;4975227;28;20458;-78
2021/06/10 05:10:00;;;;;;;;;;;22.20;99.90;;;;;;4974704;28;19922;-78
2021/06/10 05:12:28;;;;;;;;;;;22.40;99.90;;;;;;4974882;28;19926;-78
2021/06/10 05:14:54;;;;;;;;;;;22.70;99.90;;;;;;4974352;28;20009;-77
2021/06/10 05:17:20;;;;;;;;;;;23.00;99.90;;;;;;4976830;28;20469;-79
2021/06/10 05:19:46;;;;;;;;;;;23.40;99.90;;;;;;4975063;28;19972;-78
2021/06/10 05:22:12;;;;;;;;;;;23.60;99.90;;;;;;4973909;28;19965;-77
2021/06/10 05:24:40;;;;;;;;;;;23.50;99.90;;;;;;4974345;28;19929;-77
2021/06/10 05:27:09;;;;;;;;;;;23.90;99.90;;;;;;4974214;28;19922;-77
2021/06/10 05:29:37;;;;;;;;;;;24.50;99.90;;;;;;4974148;28;19974;-78
2021/06/10 05:32:04;;;;;;;;;;;25.10;99.90;;;;;;4956655;28;19929;-78
2021/06/10 05:34:30;;;;;;;;;;;25.40;99.90;;;;;;4973608;28;20271;-77
2021/06/10 05:36:56;;;;;;;;;;;25.70;99.90;;;;;;4973840;28;19922;-79
2021/06/10 05:39:22;;;;;;;;;;;26.10;99.90;;;;;;4974437;28;20013;-77
2021/06/10 05:41:49;;;;;;;;;;;26.40;99.90;;;;;;4973907;28;19926;-77
2021/06/10 05:44:15;;;;;;;;;;;26.80;99.90;;;;;;4973772;28;20013;-79
2021/06/10 05:46:42;;;;;;;;;;;27.30;99.90;;;;;;4974689;28;20446;-79
2021/06/10 05:49:08;;;;;;;;;;;27.50;99.90;;;;;;4976116;28;20017;-80
2021/06/10 05:51:35;;;;;;;;;;;27.90;99.90;;;;;;4977296;28;20013;-78
2021/06/10 05:54:01;;;;;;;;;;;28.20;99.90;;;;;;4977254;28;20441;-80
2021/06/10 05:56:27;;;;;;;;;;;28.70;99.90;;;;;;4980584;28;19929;-79
2021/06/10 05:58:53;;;;;;;;;;;28.80;99.90;;;;;;4979033;28;20013;-80
2021/06/10 06:01:19;;;;;;;;;;;29.10;99.90;;;;;;4979078;28;20001;-80
2021/06/10 06:03:49;;;;;;;;;;;29.10;99.90;;;;;;4979400;28;19958;-79
2021/06/10 06:06:18;;;;;;;;;;;29.00;99.90;;;;;;4979528;28;19922;-81
2021/06/10 06:08:44;;;;;;;;;;;29.20;99.90;;;;;;4980869;28;19925;-80
2021/06/10 06:11:10;;;;;;;;;;;29.00;99.90;;;;;;4980013;28;20009;-81
2021/06/10 06:13:45;;;;;;;;;;;29.20;99.90;;;;;;4978137;28;20014;-79
2021/06/10 06:16:12;;;;;;;;;;;29.20;99.90;;;;;;4977523;28;19922;-78
2021/06/10 06:18:38;;;;;;;;;;;29.50;99.90;;;;;;4976415;28;20087;-78
2021/06/10 06:21:06;;;;;;;;;;;29.70;99.90;;;;;;4977067;28;20013;-78
2021/06/10 06:23:32;;;;;;;;;;;30.10;99.90;;;;;;4975470;28;19968;-78
2021/06/10 06:25:59;;;;;;;;;;;30.10;99.90;;;;;;4975767;28;19926;-78
2021/06/10 06:28:25;;;;;;;;;;;30.40;99.90;;;;;;4975640;28;19937;-78
2021/06/10 06:30:51;;;;;;;;;;;30.50;99.90;;;;;;4976466;28;20044;-81
2021/06/10 06:33:17;;;;;;;;;;;30.70;99.90;;;;;;4981721;28;19969;-81
2021/06/10 06:35:45;;;;;;;;;;;30.80;99.20;;;;;;4980785;28;20013;-79
2021/06/10 06:38:12;;;;;;;;;;;31.20;99.90;;;;;;4979319;28;19929;-80
2021/06/10 06:40:39;;;;;;;;;;;31.60;99.20;;;;;;4977405;28;20340;-78
2021/06/10 06:43:06;;;;;;;;;;;31.50;99.30;;;;;;4978021;28;20107;-79
2021/06/10 06:45:33;;;;;;;;;;;31.10;99.10;;;;;;4979064;28;19922;-79
2021/06/10 06:47:59;;;;;;;;;;;31.30;98.60;;;;;;4978681;28;19926;-79
2021/06/10 06:50:26;;;;;;;;;;;31.10;98.70;;;;;;4978764;28;20343;-80
2021/06/10 06:52:52;;;;;;;;;;;31.00;99.20;;;;;;4978023;28;20534;-78
2021/06/10 06:55:20;;;;;;;;;;;31.30;99.10;;;;;;4977957;28;20016;-78
2021/06/10 06:57:46;;;;;;;;;;;31.20;98.10;;;;;;4978209;28;20013;-79
2021/06/10 07:00:12;;;;;;;;;;;31.00;97.80;;;;;;4977841;28;19958;-79
2021/06/10 07:02:39;;;;;;;;;;;31.10;96.30;;;;;;4977797;28;19989;-80
2021/06/10 07:05:06;;;;;;;;;;;31.30;95.00;;;;;;4978685;28;19981;-79
2021/06/10 07:07:32;;;;;;;;;;;31.50;96.20;;;;;;4979308;28;20033;-79
2021/06/10 07:09:58;;;;;;;;;;;31.30;95.20;;;;;;4976239;28;19953;-81
2021/06/10 07:12:25;;;;;;;;;;;31.80;93.80;;;;;;4984081;28;19989;-80
2021/06/10 07:14:52;;;;;;;;;;;32.20;93.00;;;;;;4980081;28;20016;-79
2021/06/10 07:17:18;;;;;;;;;;;32.40;92.10;;;;;;4982827;28;19945;-82
2021/06/10 07:19:47;;;;;;;;;;;32.40;92.10;;;;;;4981750;28;19965;-81
2021/06/10 07:22:13;;;;;;;;;;;32.60;91.80;;;;;;4980835;28;19957;-81
2021/06/10 07:24:39;;;;;;;;;;;32.60;90.40;;;;;;4981885;28;19929;-79
2021/06/10 07:27:16;;;;;;;;;;;32.80;92.20;;;;;;4983491;28;20191;-83
2021/06/10 07:29:43;;;;;;;;;;;32.60;90.30;;;;;;4984544;28;20385;-83
2021/06/10 07:32:16;;;;;;;;;;;32.90;91.00;;;;;;4982189;28;19922;-82
2021/06/10 07:34:42;;;;;;;;;;;33.10;91.30;;;;;;4982259;28;19926;-83
2021/06/10 07:37:17;;;;;;;;;;;32.90;90.50;;;;;;4979991;28;19933;-79
2021/06/10 07:39:45;;;;;;;;;;;32.40;91.30;;;;;;4977958;28;19929;-80
2021/06/10 07:42:12;;;;;;;;;;;32.40;92.80;;;;;;4977725;28;19926;-80
2021/06/10 07:44:40;;;;;;;;;;;32.50;92.00;;;;;;4978570;28;19953;-80
2021/06/10 07:47:08;;;;;;;;;;;32.60;91.40;;;;;;4980357;28;19949;-80
2021/06/10 07:49:39;;;;;;;;;;;32.20;91.70;;;;;;4980636;28;20299;-79
2021/06/10 07:52:05;;;;;;;;;;;32.50;92.80;;;;;;4978918;28;19926;-80
2021/06/10 07:54:33;;;;;;;;;;;32.50;92.90;;;;;;4980169;28;20366;-80
2021/06/10 07:56:59;;;;;;;;;;;32.60;92.20;;;;;;4980569;28;19968;-80
2021/06/10 07:59:26;;;;;;;;;;;32.50;91.60;;;;;;4980503;28;19929;-80
2021/06/10 08:01:52;;;;;;;;;;;32.50;92.10;;;;;;4979739;28;20371;-80
2021/06/10 08:04:20;;;;;;;;;;;32.90;91.10;;;;;;4980504;28;19993;-80
2021/06/10 08:06:46;;;;;;;;;;;33.20;90.80;;;;;;4979361;28;19969;-80
2021/06/10 08:09:12;;;;;;;;;;;33.20;90.10;;;;;;4979109;28;20350;-80
2021/06/10 08:11:38;;;;;;;;;;;33.10;86.80;;;;;;4980353;28;19933;-80
2021/06/10 08:14:05;;;;;;;;;;;33.10;88.20;;;;;;4980384;28;19922;-80
2021/06/10 08:16:31;;;;;;;;;;;32.90;88.10;;;;;;4981491;28;19953;-80
2021/06/10 08:18:57;;;;;;;;;;;33.00;90.00;;;;;;4980850;28;19989;-80
2021/06/10 08:21:25;;;;;;;;;;;33.10;91.50;;;;;;4979989;28;19922;-79
2021/06/10 08:23:51;;;;;;;;;;;33.20;90.90;;;;;;4979914;28;20021;-80
2021/06/10 08:26:17;;;;;;;;;;;33.30;89.10;;;;;;4979547;28;20016;-80
2021/06/10 08:28:44;;;;;;;;;;;33.40;89.90;;;;;;4979254;28;20039;-77
2021/06/10 08:31:10;;;;;;;;;;;32.90;87.50;;;;;;4981199;28;20013;-80
2021/06/10 08:33:36;;;;;;;;;;;32.90;87.90;;;;;;4980420;28;20056;-80
2021/06/10 08:36:05;;;;;;;;;;;32.60;88.60;;;;;;4980040;28;19926;-80
2021/06/10 08:38:33;;;;;;;;;;;32.40;89.20;;;;;;4980917;28;20355;-80
2021/06/10 08:40:59;;;;;;;;;;;32.60;88.60;;;;;;4981170;28;19953;-81
2021/06/10 08:43:26;;;;;;;;;;;32.90;87.00;;;;;;4980979;28;19937;-81
2021/06/10 08:45:56;;;;;;;;;;;32.90;88.30;;;;;;4980810;28;19957;-80
2021/06/10 08:48:22;;;;;;;;;;;33.20;88.40;;;;;;4981244;28;20268;-80
2021/06/10 08:50:49;;;;;;;;;;;33.40;87.10;;;;;;4979908;28;19929;-79
2021/06/10 08:53:19;;;;;;;;;;;33.40;86.60;;;;;;4979783;28;19961;-80
2021/06/10 08:55:48;;;;;;;;;;;33.30;86.40;;;;;;4979515;28;20310;-80
2021/06/10 08:58:14;;;;;;;;;;;33.10;87.60;;;;;;4979762;28;19967;-81
2021/06/10 09:00:40;;;;;;;;;;;32.70;88.90;;;;;;4978834;28;19957;-81
2021/06/10 09:03:07;;;;;;;;;;;32.60;88.90;;;;;;4979402;28;19960;-78
2021/06/10 09:05:33;;;;;;;;;;;32.90;86.00;;;;;;4972449;23;19929;-78
2021/06/10 09:08:01;;;;;;;;;;;32.80;86.80;;;;;;4945188;29;19995;-78
2021/06/10 09:10:29;;;;;;;;;;;32.30;87.70;;;;;;4936970;29;19923;-78
2021/06/10 09:12:57;;;;;;;;;;;32.40;89.10;;;;;;4936428;29;20011;-75
2021/06/10 09:15:25;;;;;;;;;;;32.20;84.50;;;;;;4937240;29;19946;-77
2021/06/10 09:17:51;;;;;;;;;;;32.40;87.60;;;;;;4937043;29;19929;-78
2021/06/10 09:20:27;;;;;;;;;;;32.40;87.00;;;;;;4936708;29;20009;-79
2021/06/10 09:23:08;;;;;;;;;;;32.60;90.00;;;;;;4936719;29;19969;-77
2021/06/10 09:25:34;;;;;;;;;;;32.90;89.90;;;;;;4936492;29;19923;-78
2021/06/10 09:28:04;;;;;;;;;;;33.00;88.40;;;;;;4936674;29;20332;-79
2021/06/10 09:30:31;;;;;;;;;;;33.20;86.70;;;;;;4936185;29;20431;-78
2021/06/10 09:32:58;;;;;;;;;;;33.40;86.50;;;;;;4935915;29;20316;-80
2021/06/10 09:35:27;;;;;;;;;;;33.30;84.70;;;;;;4936734;29;19998;-79
2021/06/10 09:37:56;;;;;;;;;;;33.30;86.70;;;;;;4936316;29;19929;-80
2021/06/10 09:40:23;;;;;;;;;;;33.20;88.00;;;;;;4936662;29;19923;-78
2021/06/10 09:42:49;;;;;;;;;;;33.30;90.10;;;;;;4936442;29;19973;-78
2021/06/10 09:45:18;;;;;;;;;;;33.40;85.40;;;;;;4935656;29;19946;-77
2021/06/10 09:47:46;;;;;;;;;;;33.10;85.10;;;;;;4936033;29;19931;-79
2021/06/10 09:50:15;;;;;;;;;;;32.50;84.00;;;;;;4935528;29;19923;-76
2021/06/10 09:52:44;;;;;;;;;;;32.10;84.30;;;;;;4935514;29;19942;-78
2021/06/10 09:55:25;;;;;;;;;;;32.00;85.70;;;;;;4935029;29;20013;-80
2021/06/10 09:57:51;;;;;;;;;;;31.60;86.00;;;;;;4935420;29;19958;-79
2021/06/10 10:00:25;;;;;;;;;;;31.70;88.40;;;;;;4934940;29;19936;-77
2021/06/10 10:02:51;;;;;;;;;;;31.50;87.20;;;;;;4934952;29;19934;-81
2021/06/10 10:05:20;;;;;;;;;;;31.40;88.30;;;;;;4934804;29;20322;-77
2021/06/10 10:07:46;;;;;;;;;;;30.90;87.30;;;;;;4934102;29;20033;-77
2021/06/10 10:10:13;;;;;;;;;;;30.50;90.00;;;;;;4934886;29;20366;-77
2021/06/10 10:12:42;;;;;;;;;;;30.30;90.00;;;;;;4934741;29;20288;-79
2021/06/10 10:15:09;;;;;;;;;;;30.20;90.20;;;;;;4934972;29;19922;-77
2021/06/10 10:17:36;;;;;;;;;;;29.90;88.10;;;;;;4935045;29;19923;-77
2021/06/10 10:20:03;;;;;;;;;;;29.80;91.20;;;;;;4934828;29;19923;-77
2021/06/10 10:22:30;;;;;;;;;;;29.60;92.00;;;;;;4934735;29;19927;-77
2021/06/10 10:24:58;;;;;;;;;;;29.40;91.40;;;;;;4934259;29;20033;-78
2021/06/10 10:27:24;;;;;;;;;;;29.20;92.00;;;;;;4934593;29;20009;-80
2021/06/10 10:29:51;;;;;;;;;;;29.20;93.00;;;;;;4934815;29;20077;-77
2021/06/10 10:32:20;;;;;;;;;;;29.30;93.20;;;;;;4935300;29;19931;-77
2021/06/10 10:34:48;;;;;;;;;;;29.40;93.10;;;;;;4934278;29;20009;-79
2021/06/10 10:37:19;;;;;;;;;;;29.30;92.20;;;;;;4934510;29;20368;-78
2021/06/10 10:39:45;;;;;;;;;;;29.20;92.20;;;;;;4934276;29;19938;-78
2021/06/10 10:42:24;;;;;;;;;;;29.00;93.00;;;;;;4934783;29;20293;-77
2021/06/10 10:44:51;;;;;;;;;;;28.90;93.00;;;;;;4934886;29;19977;-78
2021/06/10 10:47:18;;;;;;;;;;;28.80;92.70;;;;;;4934930;29;19970;-78
2021/06/10 10:49:44;;;;;;;;;;;28.80;93.80;;;;;;4934667;29;19926;-78
2021/06/10 10:52:36;;;;;;;;;;;28.90;93.60;;;;;;4935852;29;20066;-77
2021/06/10 10:55:18;;;;;;;;;;;29.00;93.30;;;;;;4932885;29;19962;-77
2021/06/10 10:57:45;;;;;;;;;;;29.20;93.30;;;;;;4934712;29;20021;-78
2021/06/10 11:00:14;;;;;;;;;;;29.30;93.00;;;;;;4935012;29;20021;-78
2021/06/10 11:02:47;;;;;;;;;;;29.30;93.10;;;;;;4934024;29;20296;-77
2021/06/10 11:05:27;;;;;;;;;;;29.20;92.90;;;;;;4934328;29;19978;-77
2021/06/10 11:07:54;;;;;;;;;;;29.20;93.80;;;;;;4934878;29;19923;-77
2021/06/10 11:10:50;;;;;;;;;;;29.30;93.20;;;;;;4934365;29;19923;-78
2021/06/10 11:13:18;;;;;;;;;;;29.30;93.80;;;;;;4893817;29;20215;-77
2021/06/10 11:15:48;;;;;;;;;;;29.30;93.90;;;;;;4925172;29;19922;-78
2021/06/10 11:18:34;;;;;;;;;;;29.30;94.10;;;;;;4934800;29;19930;-77
2021/06/10 11:21:00;;;;;;;;;;;29.40;94.30;;;;;;4938365;29;20017;-77
2021/06/10 11:23:26;;;;;;;;;;;29.40;94.00;;;;;;4938092;29;19934;-77
2021/06/10 11:25:53;;;;;;;;;;;29.40;94.00;;;;;;4938571;29;19922;-80
2021/06/10 11:28:21;;;;;;;;;;;29.50;93.90;;;;;;4938189;29;19930;-77
2021/06/10 11:30:48;;;;;;;;;;;29.50;93.60;;;;;;4938373;29;20314;-77
2021/06/10 11:33:23;;;;;;;;;;;29.50;93.60;;;;;;4937889;29;19922;-76
2021/06/10 11:35:50;;;;;;;;;;;29.30;93.50;;;;;;4937947;29;20360;-78
2021/06/10 11:38:18;;;;;;;;;;;29.20;94.30;;;;;;4937926;29;19923;-78
2021/06/10 11:40:45;;;;;;;;;;;29.20;94.30;;;;;;4938820;29;20016;-77
2021/06/10 11:43:12;;;;;;;;;;;29.20;92.50;;;;;;4938451;29;20340;-76
2021/06/10 11:45:39;;;;;;;;;;;29.20;94.00;;;;;;4939227;29;19927;-81
2021/06/10 11:48:06;;;;;;;;;;;29.20;94.20;;;;;;4938117;29;19972;-78
2021/06/10 11:50:34;;;;;;;;;;;29.30;93.80;;;;;;4937452;29;19922;-78
2021/06/10 11:53:02;;;;;;;;;;;29.40;93.60;;;;;;4937477;29;19922;-79
2021/06/10 11:55:29;;;;;;;;;;;29.40;93.10;;;;;;4937920;29;20013;-82
2021/06/10 11:58:00;;;;;;;;;;;29.40;92.40;;;;;;4937863;29;20009;-78
2021/06/10 12:00:28;;;;;;;;;;;29.30;93.00;;;;;;4937420;29;20414;-77
2021/06/10 12:02:56;;;;;;;;;;;29.30;92.30;;;;;;4937754;29;19966;-83
2021/06/10 12:05:22;;;;;;;;;;;29.30;92.90;;;;;;4937132;29;20005;-78
2021/06/10 12:07:48;;;;;;;;;;;29.40;93.60;;;;;;4937629;29;19962;-76
2021/06/10 12:10:17;;;;;;;;;;;29.40;92.10;;;;;;4937528;29;20380;-77
2021/06/10 12:12:45;;;;;;;;;;;29.40;93.00;;;;;;4937759;29;19973;-78
2021/06/10 12:15:28;;;;;;;;;;;29.40;93.00;;;;;;4937094;29;19950;-79
2021/06/10 12:17:56;;;;;;;;;;;29.50;93.70;;;;;;4937360;29;19966;-78
2021/06/10 12:20:24;;;;;;;;;;;29.60;93.30;;;;;;4937488;29;19980;-77
2021/06/10 12:22:50;;;;;;;;;;;29.60;93.10;;;;;;4937416;29;20017;-78
2021/06/10 12:25:18;;;;;;;;;;;29.30;93.40;;;;;;4936988;29;20010;-77
2021/06/10 12:27:47;;;;;;;;;;;29.30;93.90;;;;;;4937187;29;20389;-78
2021/06/10 12:30:40;;;;;;;;;;;29.20;94.30;;;;;;4936287;29;19929;-77
2021/06/10 12:33:18;;;;;;;;;;;29.10;93.30;;;;;;4913232;29;20009;-79
2021/06/10 12:35:46;;;;;;;;;;;29.20;93.60;;;;;;4936819;29;19922;-78
2021/06/10 12:38:13;;;;;;;;;;;29.10;93.70;;;;;;4937042;29;19929;-77
2021/06/10 12:40:40;;;;;;;;;;;29.20;92.60;;;;;;4937108;29;20018;-78
2021/06/10 12:43:07;;;;;;;;;;;29.10;92.60;;;;;;4937404;29;20094;-78
2021/06/10 12:45:33;;;;;;;;;;;29.20;93.40;;;;;;4937228;29;20065;-77
2021/06/10 12:47:59;;;;;;;;;;;29.30;92.30;;;;;;4937535;29;19968;-77
2021/06/10 12:50:29;;;;;;;;;;;29.20;92.70;;;;;;4937579;29;19966;-77
2021/06/10 12:52:55;;;;;;;;;;;29.20;92.40;;;;;;4937053;29;20291;-79
2021/06/10 12:55:28;;;;;;;;;;;29.20;91.50;;;;;;4937169;29;19954;-77
2021/06/10 12:57:59;;;;;;;;;;;29.20;92.20;;;;;;4936680;29;19926;-75
2021/06/10 13:00:32;;;;;;;;;;;29.30;93.40;;;;;;4936241;29;19923;-79
2021/06/10 13:03:05;;;;;;;;;;;29.40;92.20;;;;;;4936132;29;20403;-77
2021/06/10 13:05:32;;;;;;;;;;;29.40;92.90;;;;;;4936077;29;20027;-77
2021/06/10 13:07:58;;;;;;;;;;;29.60;93.90;;;;;;4936178;29;19939;-77
2021/06/10 13:10:41;;;;;;;;;;;29.70;92.00;;;;;;4936554;29;20300;-77
2021/06/10 13:13:08;;;;;;;;;;;29.50;93.10;;;;;;4935913;29;19933;-77
2021/06/10 13:15:35;;;;;;;;;;;29.30;91.90;;;;;;4935870;29;20007;-77
2021/06/10 13:18:03;;;;;;;;;;;29.30;91.40;;;;;;4936832;29;20359;-77
2021/06/10 13:20:48;;;;;;;;;;;29.30;91.80;;;;;;4935996;29;19962;-77
2021/06/10 13:23:17;;;;;;;;;;;29.40;92.30;;;;;;4936190;29;19953;-77
2021/06/10 13:25:43;;;;;;;;;;;29.30;91.80;;;;;;4936134;29;19927;-78
2021/06/10 13:28:14;;;;;;;;;;;29.50;92.40;;;;;;4936430;29;20017;-78
2021/06/10 13:30:41;;;;;;;;;;;29.50;91.30;;;;;;4936031;29;19923;-77
2021/06/10 13:33:07;;;;;;;;;;;29.50;90.70;;;;;;4935898;29;19922;-78
2021/06/10 13:35:39;;;;;;;;;;;29.40;91.00;;;;;;4935446;29;19958;-77
2021/06/10 13:38:06;;;;;;;;;;;29.40;91.10;;;;;;4935867;29;19927;-76
2021/06/10 13:40:33;;;;;;;;;;;29.50;91.20;;;;;;4935740;29;19929;-77
2021/06/10 13:43:00;;;;;;;;;;;29.60;90.70;;;;;;4935269;29;20418;-78
2021/06/10 13:45:29;;;;;;;;;;;29.60;88.10;;;;;;4935139;29;20022;-76
2021/06/10 13:47:55;;;;;;;;;;;29.60;88.50;;;;;;4935976;29;19954;-77
2021/06/10 13:50:21;;;;;;;;;;;29.60;90.30;;;;;;4935444;29;20339;-80
2021/06/10 13:52:48;;;;;;;;;;;29.90;90.20;;;;;;4935438;29;20065;-80
2021/06/10 13:55:14;;;;;;;;;;;29.90;91.10;;;;;;4935363;29;20072;-77
2021/06/10 13:57:42;;;;;;;;;;;29.90;91.10;;;;;;4935549;29;19930;-77
2021/06/10 14:00:08;;;;;;;;;;;29.80;90.70;;;;;;4935508;29;19923;-78
2021/06/10 14:02:36;;;;;;;;;;;29.70;90.80;;;;;;4936205;29;20058;-78
2021/06/10 14:05:02;;;;;;;;;;;29.70;90.40;;;;;;4936257;29;19923;-77
2021/06/10 14:07:28;;;;;;;;;;;29.80;90.00;;;;;;4936433;29;20335;-77
2021/06/10 14:09:54;;;;;;;;;;;29.90;90.30;;;;;;4937327;29;20021;-77
2021/06/10 14:12:20;;;;;;;;;;;30.00;91.30;;;;;;4936788;29;20054;-76
2021/06/10 14:14:48;;;;;;;;;;;30.10;90.30;;;;;;4935353;29;19929;-76
2021/06/10 14:17:14;;;;;;;;;;;30.20;90.00;;;;;;4935667;29;19923;-77
2021/06/10 14:19:40;;;;;;;;;;;30.10;88.50;;;;;;4936039;29;19923;-77